Terminal Aerodrome Forecast
Issued by NWS Sioux Falls, SD

Home | Current Version | Previous Version | Graphics & Text | Print | Product List | Glossary On
Versions: 1 2 3 4 5 6 7 8 9 10 11 12 13 14 15 16 17 18
000
FTUS43 KFSD 151143
TAFFSD
TAF
KFSD 151143Z 1512/1612 00000KT P6SM FEW250
     FM151800 19006KT P6SM FEW250
     FM160800 VRB03KT P6SM OVC110
     FM161100 VRB03KT P6SM OVC025=

USA.gov is the U.S. government's official web portal to all federal, state and local government web resources and services.